Overview Statistics Trail Chart Weather Telemetry Raw packets
 

This is the latest recevied weather packets stored in our database for station/object Waldburg. If no packets are shown the sender has not sent any weather packets the latest 10 day(s).

<< 13 14 15 16 17 18 19 >>
Time Temp. Humidity Pressure Rain* Wind** Luminosity Snow
1788044531 16.67° C 79% 1015.2 hPa 0 mm - - -
1788042731 16.67° C 77% 1015 hPa 0 mm - - -
1788040930 17.22° C 77% 1015.1 hPa 0 mm - - -
1788039131 17.22° C 75% 1015.1 hPa 0.51 mm - - -
1788037331 16.67° C 76% 1015.2 hPa 0.51 mm - - -
1788035531 16.67° C 76% 1015.1 hPa 0.51 mm - - -
1788033731 17.22° C 75% 1015 hPa 0.51 mm - - -
1788031931 17.78° C 74% 1015 hPa 0.51 mm - - -
1788030132 18.33° C 72% 1014.8 hPa 0.51 mm - - -
1788028331 18.89° C 69% 1014.5 hPa 0.51 mm - - -
1788026531 20° C 65% 1014.3 hPa 0.51 mm - - -
1788024730 20.56° C 64% 1014.2 hPa 0.51 mm - - -
1788022930 21.11° C 62% 1014.1 hPa 0.51 mm - - -
1788021130 21.11° C 59% 1014.1 hPa 0.51 mm - - -
1788019330 21.11° C 56% 1014.4 hPa 0.51 mm - - -
1788017531 21.67° C 61% 1014.5 hPa 0.51 mm - - -
1788015731 21.67° C 57% 1014.6 hPa 0.51 mm - - -
1788013933 23.33° C 58% 1014.4 hPa 0.51 mm - - -
1788012130 22.78° C 55% 1014.6 hPa 0.51 mm - - -
1788010330 22.78° C 56% 1014.7 hPa 0.51 mm - - -
1788008530 22.78° C 55% 1015 hPa 0.51 mm - - -
1788006730 22.78° C 58% 1015.2 hPa 0.51 mm - - -
1788004930 23.33° C 57% 1015.5 hPa 0.51 mm - - -
1788003130 22.78° C 56% 1015.7 hPa 0.51 mm - - -
1788001329 22.22° C 60% 1016.1 hPa 0.51 mm - - -

* Rain since midnight (hover to see other rain measurements)
** Current wind speed in m/s (hover to see current wind gust speed)